sensor_id;sensor_type;location;lat;lon;timestamp;P1;durP1;ratioP1;P2;durP2;ratioP2
3718;SDS011;1875;52.492;6.860;2023-11-18T12:30:46;98.53;;;41.45;;
3718;SDS011;1875;52.492;6.860;2023-11-18T12:33:24;98.85;;;47.67;;
3718;SDS011;1875;52.492;6.860;2023-11-18T12:42:01;36.85;;;19.45;;
3718;SDS011;1875;52.492;6.860;2023-11-18T12:44:42;29.80;;;16.50;;
3718;SDS011;1875;52.492;6.860;2023-11-18T12:47:23;25.05;;;13.65;;
3718;SDS011;1875;52.492;6.860;2023-11-18T12:49:55;28.48;;;15.20;;
3718;SDS011;1875;52.492;6.860;2023-11-18T12:52:23;33.17;;;19.63;;
3718;SDS011;1875;52.492;6.860;2023-11-18T12:54:53;32.92;;;18.63;;
3718;SDS011;1875;52.492;6.860;2023-11-18T12:57:26;25.50;;;12.77;;
3718;SDS011;1875;52.492;6.860;2023-11-18T12:59:59;26.00;;;14.05;;
3718;SDS011;1875;52.492;6.860;2023-11-18T13:02:32;26.50;;;12.73;;
3718;SDS011;1875;52.492;6.860;2023-11-18T13:05:04;32.97;;;16.20;;
3718;SDS011;1875;52.492;6.860;2023-11-18T13:07:35;29.80;;;15.10;;
3718;SDS011;1875;52.492;6.860;2023-11-18T13:10:04;30.02;;;15.55;;
3718;SDS011;1875;52.492;6.860;2023-11-18T13:12:34;32.03;;;14.50;;
3718;SDS011;1875;52.492;6.860;2023-11-18T13:15:03;27.67;;;13.15;;
3718;SDS011;1875;52.492;6.860;2023-11-18T13:17:36;32.25;;;14.95;;
3718;SDS011;1875;52.492;6.860;2023-11-18T13:22:41;45.30;;;27.65;;
3718;SDS011;1875;52.492;6.860;2023-11-18T13:25:14;31.85;;;18.73;;
3718;SDS011;1875;52.492;6.860;2023-11-18T13:27:44;32.63;;;16.13;;
3718;SDS011;1875;52.492;6.860;2023-11-18T13:30:13;31.90;;;15.05;;
3718;SDS011;1875;52.492;6.860;2023-11-18T13:32:45;29.13;;;15.38;;
3718;SDS011;1875;52.492;6.860;2023-11-18T13:35:16;25.48;;;12.70;;
3718;SDS011;1875;52.492;6.860;2023-11-18T13:37:46;33.65;;;15.45;;
3718;SDS011;1875;52.492;6.860;2023-11-18T13:40:15;29.73;;;14.35;;
3718;SDS011;1875;52.492;6.860;2023-11-18T13:45:13;32.60;;;15.15;;
3718;SDS011;1875;52.492;6.860;2023-11-18T13:48:03;31.55;;;14.25;;
3718;SDS011;1875;52.492;6.860;2023-11-18T13:50:33;38.80;;;18.35;;
3718;SDS011;1875;52.492;6.860;2023-11-18T13:53:01;35.03;;;16.98;;
3718;SDS011;1875;52.492;6.860;2023-11-18T13:55:29;34.58;;;14.93;;
3718;SDS011;1875;52.492;6.860;2023-11-18T13:58:00;36.53;;;18.08;;
3718;SDS011;1875;52.492;6.860;2023-11-18T14:00:31;31.95;;;17.35;;
3718;SDS011;1875;52.492;6.860;2023-11-18T14:02:59;42.38;;;20.50;;
3718;SDS011;1875;52.492;6.860;2023-11-18T14:05:32;46.40;;;22.17;;
3718;SDS011;1875;52.492;6.860;2023-11-18T14:08:02;45.15;;;22.45;;
3718;SDS011;1875;52.492;6.860;2023-11-18T14:10:36;42.60;;;19.95;;
3718;SDS011;1875;52.492;6.860;2023-11-18T14:13:07;35.63;;;18.02;;
3718;SDS011;1875;52.492;6.860;2023-11-18T14:15:38;39.28;;;18.40;;
3718;SDS011;1875;52.492;6.860;2023-11-18T14:18:09;37.58;;;20.08;;
3718;SDS011;1875;52.492;6.860;2023-11-18T14:20:38;35.90;;;18.70;;
3718;SDS011;1875;52.492;6.860;2023-11-18T14:23:06;47.45;;;26.73;;
3718;SDS011;1875;52.492;6.860;2023-11-18T14:25:35;49.42;;;29.60;;
3718;SDS011;1875;52.492;6.860;2023-11-18T14:28:04;43.63;;;23.33;;
3718;SDS011;1875;52.492;6.860;2023-11-18T14:30:35;33.00;;;18.05;;
3718;SDS011;1875;52.492;6.860;2023-11-18T14:33:03;43.22;;;22.65;;
3718;SDS011;1875;52.492;6.860;2023-11-18T14:35:31;46.70;;;22.77;;
3718;SDS011;1875;52.492;6.860;2023-11-18T14:38:01;37.78;;;18.40;;
3718;SDS011;1875;52.492;6.860;2023-11-18T14:40:30;34.70;;;16.80;;
3718;SDS011;1875;52.492;6.860;2023-11-18T14:42:59;34.88;;;16.17;;
3718;SDS011;1875;52.492;6.860;2023-11-18T14:45:27;38.05;;;18.75;;
3718;SDS011;1875;52.492;6.860;2023-11-18T14:47:55;41.13;;;19.42;;
3718;SDS011;1875;52.492;6.860;2023-11-18T14:50:23;39.30;;;17.83;;
3718;SDS011;1875;52.492;6.860;2023-11-18T14:52:53;38.63;;;19.50;;
3718;SDS011;1875;52.492;6.860;2023-11-18T14:55:27;32.53;;;17.15;;
3718;SDS011;1875;52.492;6.860;2023-11-18T14:57:56;32.63;;;15.77;;
3718;SDS011;1875;52.492;6.860;2023-11-18T15:00:24;40.70;;;18.80;;
3718;SDS011;1875;52.492;6.860;2023-11-18T15:02:54;33.65;;;16.27;;
3718;SDS011;1875;52.492;6.860;2023-11-18T15:05:26;41.65;;;17.15;;
3718;SDS011;1875;52.492;6.860;2023-11-18T15:07:55;33.58;;;16.67;;
3718;SDS011;1875;52.492;6.860;2023-11-18T15:10:25;41.15;;;20.83;;
3718;SDS011;1875;52.492;6.860;2023-11-18T15:12:55;40.35;;;19.17;;
3718;SDS011;1875;52.492;6.860;2023-11-18T15:15:25;40.92;;;20.98;;
3718;SDS011;1875;52.492;6.860;2023-11-18T15:18:00;44.55;;;22.58;;
3718;SDS011;1875;52.492;6.860;2023-11-18T15:20:30;37.33;;;17.17;;
3718;SDS011;1875;52.492;6.860;2023-11-18T15:22:58;44.75;;;17.40;;
3718;SDS011;1875;52.492;6.860;2023-11-18T15:25:27;34.75;;;15.95;;
3718;SDS011;1875;52.492;6.860;2023-11-18T15:27:56;40.08;;;19.02;;
3718;SDS011;1875;52.492;6.860;2023-11-18T15:30:25;37.03;;;18.63;;
3718;SDS011;1875;52.492;6.860;2023-11-18T15:32:54;35.50;;;17.48;;
3718;SDS011;1875;52.492;6.860;2023-11-18T15:35:22;32.90;;;16.02;;
3718;SDS011;1875;52.492;6.860;2023-11-18T15:37:51;36.67;;;16.85;;
3718;SDS011;1875;52.492;6.860;2023-11-18T15:40:19;32.45;;;14.85;;
3718;SDS011;1875;52.492;6.860;2023-11-18T15:42:52;25.08;;;13.00;;
3718;SDS011;1875;52.492;6.860;2023-11-18T15:45:22;33.42;;;16.83;;
3718;SDS011;1875;52.492;6.860;2023-11-18T15:47:51;37.78;;;19.00;;
3718;SDS011;1875;52.492;6.860;2023-11-18T15:50:19;37.70;;;18.25;;
3718;SDS011;1875;52.492;6.860;2023-11-18T15:52:47;31.67;;;16.15;;
3718;SDS011;1875;52.492;6.860;2023-11-18T15:55:18;25.48;;;12.88;;
3718;SDS011;1875;52.492;6.860;2023-11-18T15:57:48;32.78;;;15.02;;
3718;SDS011;1875;52.492;6.860;2023-11-18T16:00:19;27.55;;;12.93;;
3718;SDS011;1875;52.492;6.860;2023-11-18T16:02:52;32.03;;;16.20;;
3718;SDS011;1875;52.492;6.860;2023-11-18T16:05:26;32.85;;;18.08;;
3718;SDS011;1875;52.492;6.860;2023-11-18T16:08:00;30.42;;;14.40;;
3718;SDS011;1875;52.492;6.860;2023-11-18T16:10:29;29.98;;;15.90;;
3718;SDS011;1875;52.492;6.860;2023-11-18T16:12:58;23.38;;;12.30;;
3718;SDS011;1875;52.492;6.860;2023-11-18T16:15:28;27.00;;;13.93;;
3718;SDS011;1875;52.492;6.860;2023-11-18T16:17:57;26.40;;;11.77;;
3718;SDS011;1875;52.492;6.860;2023-11-18T16:20:28;20.17;;;9.73;;
3718;SDS011;1875;52.492;6.860;2023-11-18T16:22:59;23.15;;;12.82;;
3718;SDS011;1875;52.492;6.860;2023-11-18T16:25:30;23.17;;;13.77;;
3718;SDS011;1875;52.492;6.860;2023-11-18T16:27:59;39.00;;;24.27;;
3718;SDS011;1875;52.492;6.860;2023-11-18T16:30:30;26.58;;;17.40;;
3718;SDS011;1875;52.492;6.860;2023-11-18T16:32:59;22.15;;;12.90;;
3718;SDS011;1875;52.492;6.860;2023-11-18T16:35:30;22.42;;;10.63;;
3718;SDS011;1875;52.492;6.860;2023-11-18T16:37:59;18.80;;;9.57;;
3718;SDS011;1875;52.492;6.860;2023-11-18T16:40:28;19.55;;;9.88;;
3718;SDS011;1875;52.492;6.860;2023-11-18T16:42:56;19.67;;;11.00;;
3718;SDS011;1875;52.492;6.860;2023-11-18T16:45:26;24.13;;;12.50;;
3718;SDS011;1875;52.492;6.860;2023-11-18T16:47:56;22.15;;;12.68;;
3718;SDS011;1875;52.492;6.860;2023-11-18T16:50:25;23.23;;;9.43;;
3718;SDS011;1875;52.492;6.860;2023-11-18T16:52:54;16.30;;;8.38;;
3718;SDS011;1875;52.492;6.860;2023-11-18T16:55:23;17.77;;;10.27;;
3718;SDS011;1875;52.492;6.860;2023-11-18T16:57:52;22.20;;;12.48;;
3718;SDS011;1875;52.492;6.860;2023-11-18T17:00:21;22.38;;;12.52;;
3718;SDS011;1875;52.492;6.860;2023-11-18T17:02:51;15.25;;;8.68;;
3718;SDS011;1875;52.492;6.860;2023-11-18T17:05:25;15.93;;;7.85;;
3718;SDS011;1875;52.492;6.860;2023-11-18T17:07:57;21.60;;;10.85;;
3718;SDS011;1875;52.492;6.860;2023-11-18T17:10:27;18.17;;;9.55;;
3718;SDS011;1875;52.492;6.860;2023-11-18T17:12:55;18.60;;;10.10;;
3718;SDS011;1875;52.492;6.860;2023-11-18T17:17:52;12.43;;;7.03;;
3718;SDS011;1875;52.492;6.860;2023-11-18T17:20:30;17.60;;;9.40;;
3718;SDS011;1875;52.492;6.860;2023-11-18T17:22:58;17.15;;;10.05;;
3718;SDS011;1875;52.492;6.860;2023-11-18T17:25:27;16.98;;;9.40;;
3718;SDS011;1875;52.492;6.860;2023-11-18T17:27:55;21.48;;;9.30;;
3718;SDS011;1875;52.492;6.860;2023-11-18T17:30:23;17.70;;;8.15;;
3718;SDS011;1875;52.492;6.860;2023-11-18T17:32:52;15.52;;;9.32;;
3718;SDS011;1875;52.492;6.860;2023-11-18T17:35:20;17.35;;;9.88;;
3718;SDS011;1875;52.492;6.860;2023-11-18T17:37:50;17.42;;;9.32;;
3718;SDS011;1875;52.492;6.860;2023-11-18T17:40:18;22.50;;;10.55;;
3718;SDS011;1875;52.492;6.860;2023-11-18T17:42:48;16.63;;;9.18;;
3718;SDS011;1875;52.492;6.860;2023-11-18T17:45:20;15.07;;;8.88;;
3718;SDS011;1875;52.492;6.860;2023-11-18T17:47:50;17.13;;;9.80;;
3718;SDS011;1875;52.492;6.860;2023-11-18T17:50:19;13.68;;;8.15;;
3718;SDS011;1875;52.492;6.860;2023-11-18T17:52:47;15.52;;;9.35;;
3718;SDS011;1875;52.492;6.860;2023-11-18T17:55:18;16.40;;;8.15;;
3718;SDS011;1875;52.492;6.860;2023-11-18T17:57:46;13.02;;;7.30;;
3718;SDS011;1875;52.492;6.860;2023-11-18T18:00:15;13.50;;;7.57;;
3718;SDS011;1875;52.492;6.860;2023-11-18T18:02:50;16.48;;;8.82;;
3718;SDS011;1875;52.492;6.860;2023-11-18T18:05:19;12.85;;;7.63;;
3718;SDS011;1875;52.492;6.860;2023-11-18T18:07:48;13.82;;;7.65;;
3718;SDS011;1875;52.492;6.860;2023-11-18T18:10:16;14.88;;;7.93;;
3718;SDS011;1875;52.492;6.860;2023-11-18T18:12:46;11.38;;;6.80;;
3718;SDS011;1875;52.492;6.860;2023-11-18T18:15:14;13.43;;;7.82;;
3718;SDS011;1875;52.492;6.860;2023-11-18T18:17:42;15.10;;;8.15;;
3718;SDS011;1875;52.492;6.860;2023-11-18T18:20:10;16.17;;;8.68;;
3718;SDS011;1875;52.492;6.860;2023-11-18T18:22:40;16.23;;;8.23;;
3718;SDS011;1875;52.492;6.860;2023-11-18T18:25:09;16.67;;;8.10;;
3718;SDS011;1875;52.492;6.860;2023-11-18T18:27:39;15.05;;;8.40;;
3718;SDS011;1875;52.492;6.860;2023-11-18T18:30:09;14.63;;;8.80;;
3718;SDS011;1875;52.492;6.860;2023-11-18T18:32:37;17.52;;;8.32;;
3718;SDS011;1875;52.492;6.860;2023-11-18T18:35:06;17.15;;;9.32;;
3718;SDS011;1875;52.492;6.860;2023-11-18T18:37:35;16.45;;;9.70;;
3718;SDS011;1875;52.492;6.860;2023-11-18T18:40:03;17.30;;;9.15;;
3718;SDS011;1875;52.492;6.860;2023-11-18T18:42:32;20.33;;;10.30;;
3718;SDS011;1875;52.492;6.860;2023-11-18T18:45:00;23.15;;;12.02;;
3718;SDS011;1875;52.492;6.860;2023-11-18T18:47:32;18.83;;;11.30;;
3718;SDS011;1875;52.492;6.860;2023-11-18T18:52:28;20.38;;;10.13;;
3718;SDS011;1875;52.492;6.860;2023-11-18T18:54:56;18.50;;;10.45;;
3718;SDS011;1875;52.492;6.860;2023-11-18T18:57:25;20.20;;;9.63;;
3718;SDS011;1875;52.492;6.860;2023-11-18T18:59:53;16.38;;;9.73;;
3718;SDS011;1875;52.492;6.860;2023-11-18T19:02:21;17.60;;;9.68;;
3718;SDS011;1875;52.492;6.860;2023-11-18T19:04:52;17.65;;;10.07;;
3718;SDS011;1875;52.492;6.860;2023-11-18T19:07:20;17.77;;;9.63;;
3718;SDS011;1875;52.492;6.860;2023-11-18T19:09:48;22.40;;;12.32;;
3718;SDS011;1875;52.492;6.860;2023-11-18T19:12:16;21.60;;;10.95;;
3718;SDS011;1875;52.492;6.860;2023-11-18T19:14:44;17.83;;;10.57;;
3718;SDS011;1875;52.492;6.860;2023-11-18T19:17:12;18.38;;;10.20;;
3718;SDS011;1875;52.492;6.860;2023-11-18T19:19:40;19.52;;;11.02;;
3718;SDS011;1875;52.492;6.860;2023-11-18T19:22:10;17.58;;;11.65;;
3718;SDS011;1875;52.492;6.860;2023-11-18T19:24:38;16.40;;;8.52;;
3718;SDS011;1875;52.492;6.860;2023-11-18T19:27:09;18.98;;;10.68;;
3718;SDS011;1875;52.492;6.860;2023-11-18T19:29:38;17.60;;;9.30;;
3718;SDS011;1875;52.492;6.860;2023-11-18T19:32:10;19.88;;;10.65;;
3718;SDS011;1875;52.492;6.860;2023-11-18T19:34:38;19.55;;;11.23;;
3718;SDS011;1875;52.492;6.860;2023-11-18T19:37:06;12.68;;;7.30;;
3718;SDS011;1875;52.492;6.860;2023-11-18T19:39:37;16.83;;;9.82;;
3718;SDS011;1875;52.492;6.860;2023-11-18T19:42:07;20.77;;;10.48;;
3718;SDS011;1875;52.492;6.860;2023-11-18T19:44:35;21.73;;;11.60;;
3718;SDS011;1875;52.492;6.860;2023-11-18T19:47:04;16.33;;;9.13;;
3718;SDS011;1875;52.492;6.860;2023-11-18T19:49:33;19.50;;;12.07;;
3718;SDS011;1875;52.492;6.860;2023-11-18T19:52:01;21.08;;;11.15;;
3718;SDS011;1875;52.492;6.860;2023-11-18T19:54:30;24.55;;;13.02;;
3718;SDS011;1875;52.492;6.860;2023-11-18T19:57:00;19.27;;;9.93;;
3718;SDS011;1875;52.492;6.860;2023-11-18T19:59:28;17.73;;;9.52;;
3718;SDS011;1875;52.492;6.860;2023-11-18T20:01:59;19.77;;;10.90;;
3718;SDS011;1875;52.492;6.860;2023-11-18T20:04:27;16.33;;;9.73;;
3718;SDS011;1875;52.492;6.860;2023-11-18T20:06:56;17.52;;;10.20;;
3718;SDS011;1875;52.492;6.860;2023-11-18T20:09:25;19.83;;;10.82;;
3718;SDS011;1875;52.492;6.860;2023-11-18T20:11:53;19.45;;;11.25;;
3718;SDS011;1875;52.492;6.860;2023-11-18T20:14:32;22.63;;;12.20;;
3718;SDS011;1875;52.492;6.860;2023-11-18T20:17:00;24.33;;;12.30;;
3718;SDS011;1875;52.492;6.860;2023-11-18T20:19:29;19.30;;;12.32;;
3718;SDS011;1875;52.492;6.860;2023-11-18T20:21:59;23.13;;;12.32;;
3718;SDS011;1875;52.492;6.860;2023-11-18T20:24:27;22.27;;;10.93;;
3718;SDS011;1875;52.492;6.860;2023-11-18T20:26:56;21.98;;;13.25;;
3718;SDS011;1875;52.492;6.860;2023-11-18T20:29:24;23.58;;;12.27;;
3718;SDS011;1875;52.492;6.860;2023-11-18T20:31:53;19.25;;;10.13;;
3718;SDS011;1875;52.492;6.860;2023-11-18T20:34:21;20.58;;;11.65;;
3718;SDS011;1875;52.492;6.860;2023-11-18T20:36:49;19.98;;;10.93;;
3718;SDS011;1875;52.492;6.860;2023-11-18T20:39:17;19.58;;;10.02;;
3718;SDS011;1875;52.492;6.860;2023-11-18T20:41:45;18.20;;;10.13;;
3718;SDS011;1875;52.492;6.860;2023-11-18T20:49:13;19.42;;;11.20;;
3718;SDS011;1875;52.492;6.860;2023-11-18T20:51:44;24.52;;;12.57;;
3718;SDS011;1875;52.492;6.860;2023-11-18T20:54:12;20.17;;;10.70;;
3718;SDS011;1875;52.492;6.860;2023-11-18T20:56:40;22.27;;;9.68;;
3718;SDS011;1875;52.492;6.860;2023-11-18T20:59:08;20.30;;;10.43;;
3718;SDS011;1875;52.492;6.860;2023-11-18T21:01:36;19.50;;;9.73;;
3718;SDS011;1875;52.492;6.860;2023-11-18T21:04:05;19.63;;;10.13;;
3718;SDS011;1875;52.492;6.860;2023-11-18T21:06:35;21.35;;;10.90;;
3718;SDS011;1875;52.492;6.860;2023-11-18T21:09:03;19.52;;;9.38;;
3718;SDS011;1875;52.492;6.860;2023-11-18T21:11:31;24.70;;;10.68;;
3718;SDS011;1875;52.492;6.860;2023-11-18T21:13:59;18.98;;;9.82;;
3718;SDS011;1875;52.492;6.860;2023-11-18T21:16:30;20.60;;;9.63;;
3718;SDS011;1875;52.492;6.860;2023-11-18T21:18:58;18.92;;;9.52;;
3718;SDS011;1875;52.492;6.860;2023-11-18T21:21:28;20.40;;;10.80;;
3718;SDS011;1875;52.492;6.860;2023-11-18T21:23:57;21.50;;;11.35;;
3718;SDS011;1875;52.492;6.860;2023-11-18T21:26:29;20.38;;;9.77;;
3718;SDS011;1875;52.492;6.860;2023-11-18T21:28:57;17.27;;;8.30;;
3718;SDS011;1875;52.492;6.860;2023-11-18T21:31:25;17.50;;;8.52;;
3718;SDS011;1875;52.492;6.860;2023-11-18T21:33:53;18.23;;;8.00;;
3718;SDS011;1875;52.492;6.860;2023-11-18T21:36:21;20.77;;;9.40;;
3718;SDS011;1875;52.492;6.860;2023-11-18T21:38:49;19.20;;;8.60;;
3718;SDS011;1875;52.492;6.860;2023-11-18T21:41:21;20.23;;;10.00;;
3718;SDS011;1875;52.492;6.860;2023-11-18T21:43:49;20.30;;;10.82;;
3718;SDS011;1875;52.492;6.860;2023-11-18T21:46:17;19.23;;;8.90;;
3718;SDS011;1875;52.492;6.860;2023-11-18T21:48:47;17.20;;;8.63;;
3718;SDS011;1875;52.492;6.860;2023-11-18T21:51:15;22.10;;;9.82;;
3718;SDS011;1875;52.492;6.860;2023-11-18T21:53:43;24.70;;;11.88;;
3718;SDS011;1875;52.492;6.860;2023-11-18T21:56:12;21.10;;;10.50;;
3718;SDS011;1875;52.492;6.860;2023-11-18T21:58:44;19.75;;;9.70;;
3718;SDS011;1875;52.492;6.860;2023-11-18T22:01:12;21.90;;;9.85;;
3718;SDS011;1875;52.492;6.860;2023-11-18T22:03:41;22.83;;;10.07;;
3718;SDS011;1875;52.492;6.860;2023-11-18T22:06:09;16.67;;;8.15;;
3718;SDS011;1875;52.492;6.860;2023-11-18T22:08:37;23.70;;;11.82;;
3718;SDS011;1875;52.492;6.860;2023-11-18T22:11:05;20.25;;;9.65;;
3718;SDS011;1875;52.492;6.860;2023-11-18T22:13:33;27.05;;;13.73;;
3718;SDS011;1875;52.492;6.860;2023-11-18T22:16:03;20.60;;;10.35;;
3718;SDS011;1875;52.492;6.860;2023-11-18T22:18:31;24.13;;;11.57;;
3718;SDS011;1875;52.492;6.860;2023-11-18T22:20:59;17.92;;;9.30;;
3718;SDS011;1875;52.492;6.860;2023-11-18T22:23:29;23.55;;;10.80;;
3718;SDS011;1875;52.492;6.860;2023-11-18T22:25:57;23.58;;;10.60;;
3718;SDS011;1875;52.492;6.860;2023-11-18T22:28:24;22.98;;;8.77;;
3718;SDS011;1875;52.492;6.860;2023-11-18T22:30:58;23.20;;;10.18;;
3718;SDS011;1875;52.492;6.860;2023-11-18T22:33:27;23.30;;;10.60;;
3718;SDS011;1875;52.492;6.860;2023-11-18T22:35:56;27.98;;;11.63;;
3718;SDS011;1875;52.492;6.860;2023-11-18T22:38:24;23.40;;;10.60;;
3718;SDS011;1875;52.492;6.860;2023-11-18T22:40:52;22.42;;;10.93;;
3718;SDS011;1875;52.492;6.860;2023-11-18T22:43:20;25.25;;;12.18;;
3718;SDS011;1875;52.492;6.860;2023-11-18T22:45:48;23.45;;;11.35;;
3718;SDS011;1875;52.492;6.860;2023-11-18T22:48:18;23.15;;;10.90;;
3718;SDS011;1875;52.492;6.860;2023-11-18T22:50:48;26.35;;;12.77;;
3718;SDS011;1875;52.492;6.860;2023-11-18T22:55:44;24.38;;;12.25;;
3718;SDS011;1875;52.492;6.860;2023-11-18T22:58:14;27.38;;;12.13;;
3718;SDS011;1875;52.492;6.860;2023-11-18T23:00:43;31.02;;;13.30;;
3718;SDS011;1875;52.492;6.860;2023-11-18T23:03:17;25.38;;;12.85;;
3718;SDS011;1875;52.492;6.860;2023-11-18T23:05:46;27.33;;;13.90;;
3718;SDS011;1875;52.492;6.860;2023-11-18T23:08:15;28.27;;;12.73;;
3718;SDS011;1875;52.492;6.860;2023-11-18T23:10:48;32.90;;;15.85;;
3718;SDS011;1875;52.492;6.860;2023-11-18T23:13:17;25.92;;;11.95;;
3718;SDS011;1875;52.492;6.860;2023-11-18T23:15:46;27.15;;;11.25;;
3718;SDS011;1875;52.492;6.860;2023-11-18T23:18:14;26.58;;;12.43;;
3718;SDS011;1875;52.492;6.860;2023-11-18T23:20:45;28.38;;;12.07;;
3718;SDS011;1875;52.492;6.860;2023-11-18T23:23:15;29.02;;;12.57;;
3718;SDS011;1875;52.492;6.860;2023-11-18T23:25:44;28.50;;;11.82;;
3718;SDS011;1875;52.492;6.860;2023-11-18T23:28:12;31.38;;;11.60;;
3718;SDS011;1875;52.492;6.860;2023-11-18T23:30:40;24.92;;;10.93;;
3718;SDS011;1875;52.492;6.860;2023-11-18T23:33:08;22.35;;;10.77;;
3718;SDS011;1875;52.492;6.860;2023-11-18T23:35:36;28.05;;;13.52;;
3718;SDS011;1875;52.492;6.860;2023-11-18T23:38:07;25.80;;;10.23;;
3718;SDS011;1875;52.492;6.860;2023-11-18T23:40:36;24.58;;;9.85;;
3718;SDS011;1875;52.492;6.860;2023-11-18T23:43:07;22.50;;;10.07;;
3718;SDS011;1875;52.492;6.860;2023-11-18T23:45:35;26.42;;;11.07;;
3718;SDS011;1875;52.492;6.860;2023-11-18T23:48:03;22.90;;;10.98;;
3718;SDS011;1875;52.492;6.860;2023-11-18T23:50:30;24.90;;;10.18;;
3718;SDS011;1875;52.492;6.860;2023-11-18T23:52:59;23.95;;;10.40;;
3718;SDS011;1875;52.492;6.860;2023-11-18T23:55:27;30.45;;;14.30;;
3718;SDS011;1875;52.492;6.860;2023-11-18T23:57:57;25.80;;;11.57;;
